Time;durP1;ratioP1;P1;durP2;ratioP2;P2;SDS_P1;SDS_P2;PMS_P1;PMS_P2;Temp;Humidity;BMP_temperature;BMP_pressure;BME280_temperature;BME280_humidity;BME280_pressure;Samples;Min_cycle;Max_cycle;Signal;HPM_P1;HPM_P2
2022/03/28 04:30:47;;;;;;;;;46.00;36.75;;;;;14.33;47.99;101992.91;5056992;27;45559;-69
2022/03/28 04:33:12;;;;;;;;;48.25;34.75;;;;;14.22;47.76;101967.31;5036381;28;45383;-69
2022/03/28 04:35:39;;;;;;;;;44.25;37.50;;;;;14.37;47.82;101996.38;5035271;28;45649;-69
2022/03/28 04:38:06;;;;;;;;;48.00;39.00;;;;;14.38;47.99;102001.72;5036144;28;45461;-70
2022/03/28 04:40:33;;;;;;;;;44.25;35.50;;;;;14.26;48.54;101994.09;5036264;28;45342;-69
2022/03/28 04:42:59;;;;;;;;;42.75;36.50;;;;;14.24;48.95;101989.69;5036954;28;45193;-71
2022/03/28 04:45:24;;;;;;;;;50.75;38.25;;;;;14.21;49.06;101997.91;5034998;28;48143;-70
2022/03/28 04:47:50;;;;;;;;;42.00;35.00;;;;;14.23;48.85;101998.72;5036459;28;45387;-70
2022/03/28 04:50:16;;;;;;;;;54.75;35.50;;;;;14.23;49.11;101986.13;5036344;28;45652;-70
2022/03/28 04:52:41;;;;;;;;;41.25;35.25;;;;;14.27;49.20;101989.59;5036582;28;45316;-69
2022/03/28 04:55:07;;;;;;;;;47.00;36.75;;;;;14.18;49.30;101982.75;5036241;28;45438;-70
2022/03/28 04:57:33;;;;;;;;;46.50;36.00;;;;;14.12;49.26;101987.53;5036742;28;45817;-68
2022/03/28 04:59:59;;;;;;;;;50.25;36.75;;;;;14.18;49.27;101981.88;5035307;28;45386;-69
2022/03/28 05:02:24;;;;;;;;;49.50;38.00;;;;;14.18;49.14;101977.34;5036154;28;45535;-71
2022/03/28 05:04:49;;;;;;;;;41.00;34.00;;;;;14.20;49.41;101975.50;5035223;28;45395;-70
2022/03/28 05:07:25;;;;;;;;;36.50;33.00;;;;;14.12;49.48;101966.81;5035579;28;45846;-71
2022/03/28 05:09:51;;;;;;;;;45.50;35.75;;;;;14.07;49.93;101974.22;5036345;28;45322;-71
2022/03/28 05:12:16;;;;;;;;;49.00;38.00;;;;;14.05;49.39;101965.31;5036914;28;45661;-76
2022/03/28 05:14:42;;;;;;;;;45.50;36.25;;;;;14.08;49.80;101965.19;5037649;28;45509;-76
2022/03/28 05:17:07;;;;;;;;;40.50;36.50;;;;;14.23;49.53;101972.66;5035379;28;45331;-74
2022/03/28 05:19:32;;;;;;;;;39.75;31.50;;;;;14.29;49.77;101979.63;5035529;28;45225;-76
2022/03/28 05:21:58;;;;;;;;;48.00;37.00;;;;;14.22;49.96;101972.69;5036579;28;45289;-76
2022/03/28 05:24:23;;;;;;;;;51.25;37.00;;;;;14.12;50.27;101961.41;5035930;28;45486;-80
2022/03/28 05:26:49;;;;;;;;;52.75;37.00;;;;;14.07;50.09;101966.13;5036526;28;45523;-81
2022/03/28 05:29:15;;;;;;;;;50.25;39.50;;;;;14.03;50.47;101968.06;5036251;28;45660;-81
2022/03/28 05:31:41;;;;;;;;;45.25;38.50;;;;;14.01;49.60;101958.31;5026041;28;45356;-79
2022/03/28 05:34:06;;;;;;;;;45.00;36.50;;;;;14.11;50.58;101974.97;5014481;28;45397;-73
2022/03/28 05:36:32;;;;;;;;;46.25;38.00;;;;;13.93;50.78;101949.66;5016615;28;45503;-77
2022/03/28 05:38:58;;;;;;;;;45.25;38.50;;;;;14.09;50.51;101977.72;5018408;28;45381;-78
2022/03/28 05:41:23;;;;;;;;;43.75;36.00;;;;;14.05;51.17;101986.00;5018415;28;45444;-77
2022/03/28 05:43:49;;;;;;;;;47.25;37.00;;;;;13.85;50.75;101955.34;5017006;28;46562;-77
2022/03/28 05:46:14;;;;;;;;;50.00;36.75;;;;;13.92;50.62;101956.84;5016193;28;45413;-81
2022/03/28 05:48:40;;;;;;;;;52.00;37.25;;;;;14.11;50.23;101970.47;4998543;28;45337;-78
2022/03/28 05:51:05;;;;;;;;;45.25;36.00;;;;;14.10;50.46;101957.03;5015976;28;45386;-84
2022/03/28 05:53:30;;;;;;;;;47.25;38.25;;;;;14.19;50.33;101973.72;5016143;28;45403;-76
2022/03/28 05:55:56;;;;;;;;;48.75;38.00;;;;;14.18;50.72;101976.47;4998019;28;45358;-77
2022/03/28 05:58:21;;;;;;;;;49.50;37.75;;;;;14.13;50.64;101976.66;5016317;28;45458;-74
2022/03/28 06:00:47;;;;;;;;;45.25;36.00;;;;;14.19;50.25;101973.72;5015700;28;45545;-74
2022/03/28 06:03:12;;;;;;;;;47.25;38.00;;;;;14.23;50.77;101974.47;4997132;28;48402;-74
2022/03/28 06:05:37;;;;;;;;;50.50;38.75;;;;;14.21;50.90;101970.94;5014919;28;45316;-72
2022/03/28 06:08:04;;;;;;;;;53.25;40.50;;;;;14.08;50.81;101942.75;5015449;28;45423;-75
2022/03/28 06:10:29;;;;;;;;;55.75;42.25;;;;;14.24;51.52;101970.81;5015510;28;45508;-75
2022/03/28 06:12:54;;;;;;;;;40.50;32.50;;;;;14.20;51.17;101971.91;4993769;28;48711;-74
2022/03/28 06:15:20;;;;;;;;;46.50;40.50;;;;;14.22;51.32;101973.56;4997172;28;45277;-75
2022/03/28 06:17:46;;;;;;;;;50.25;40.00;;;;;14.24;50.89;101965.44;5021229;28;45399;-74
2022/03/28 06:20:12;;;;;;;;;48.25;38.75;;;;;14.18;51.28;101961.19;5009402;28;45907;-76
2022/03/28 06:22:38;;;;;;;;;52.25;41.75;;;;;14.13;51.43;101968.56;5013425;28;45730;-73
2022/03/28 06:25:04;;;;;;;;;54.75;42.00;;;;;14.14;51.38;101956.84;5012929;28;45367;-75
2022/03/28 06:27:30;;;;;;;;;47.25;38.00;;;;;14.21;51.65;101963.72;5013987;28;45516;-75
2022/03/28 06:29:56;;;;;;;;;51.50;37.75;;;;;14.31;51.54;101967.81;5013052;28;45307;-74
2022/03/28 06:32:22;;;;;;;;;47.25;39.75;;;;;14.28;51.24;101959.84;5028225;28;45303;-73
2022/03/28 06:34:48;;;;;;;;;56.00;40.25;;;;;14.34;51.26;101964.09;5032145;28;45530;-76
2022/03/28 06:37:16;;;;;;;;;52.25;41.50;;;;;14.29;51.34;101942.69;5033181;28;45231;-75
2022/03/28 06:39:42;;;;;;;;;54.75;39.25;;;;;14.42;50.83;101963.81;5031782;28;45419;-75
2022/03/28 06:42:08;;;;;;;;;51.00;40.00;;;;;14.39;51.11;101964.81;5031382;28;46204;-76
2022/03/28 06:44:34;;;;;;;;;52.00;41.00;;;;;14.34;51.05;101950.63;5034157;28;45406;-75
2022/03/28 06:46:59;;;;;;;;;49.75;36.00;;;;;14.35;50.89;101955.97;5034093;28;45490;-75
2022/03/28 06:49:24;;;;;;;;;46.00;35.50;;;;;14.38;50.88;101953.16;5015784;28;46908;-74
2022/03/28 06:51:50;;;;;;;;;45.25;38.25;;;;;14.39;50.65;101945.94;5034172;28;46309;-75
2022/03/28 06:54:19;;;;;;;;;52.75;40.75;;;;;14.47;50.72;101959.97;5034259;28;45359;-75
2022/03/28 06:56:45;;;;;;;;;51.00;38.25;;;;;14.55;50.53;101951.53;5028044;28;45432;-75
2022/03/28 06:59:10;;;;;;;;;54.00;39.50;;;;;14.45;50.42;101928.63;5012783;28;46018;-75
2022/03/28 07:01:36;;;;;;;;;48.25;37.75;;;;;14.63;50.69;101960.22;5028119;28;46050;-75
2022/03/28 07:04:03;;;;;;;;;52.75;42.75;;;;;14.61;51.27;101960.28;5033638;28;45428;-75
2022/03/28 07:06:28;;;;;;;;;51.25;38.50;;;;;14.53;51.01;101946.25;5034195;28;45398;-75
2022/03/28 07:08:53;;;;;;;;;42.50;37.00;;;;;14.57;51.16;101950.53;5034122;28;45264;-75
2022/03/28 07:11:19;;;;;;;;;49.75;39.00;;;;;14.58;50.71;101932.53;5016680;28;48546;-74
2022/03/28 07:13:44;;;;;;;;;55.50;41.25;;;;;14.65;50.70;101940.28;5034670;28;45505;-76
2022/03/28 07:16:10;;;;;;;;;50.25;40.50;;;;;14.78;50.73;101948.75;5033809;28;45485;-73
2022/03/28 07:18:35;;;;;;;;;47.50;39.00;;;;;14.72;49.88;101930.97;5041014;28;45435;-76
2022/03/28 07:21:01;;;;;;;;;50.00;38.25;;;;;14.86;50.38;101932.19;5028231;28;48326;-76
2022/03/28 07:23:26;;;;;;;;;51.50;40.00;;;;;14.94;49.72;101938.13;5033925;28;45216;-76
2022/03/28 07:25:51;;;;;;;;;51.75;42.25;;;;;15.02;49.88;101933.25;5039930;28;45727;-79
2022/03/28 07:28:20;;;;;;;;;52.75;43.00;;;;;15.05;49.44;101928.59;5035636;28;45489;-77
2022/03/28 07:30:45;;;;;;;;;53.75;40.50;;;;;15.18;49.68;101941.53;5015865;28;47373;-77
2022/03/28 07:33:11;;;;;;;;;54.00;44.75;;;;;15.04;49.62;101913.34;5034137;28;45291;-79
2022/03/28 07:35:37;;;;;;;;;53.25;43.25;;;;;15.27;49.88;101938.41;5033706;28;45520;-78
2022/03/28 07:38:07;;;;;;;;;55.00;44.00;;;;;15.27;50.23;101939.28;5034148;28;45308;-78
2022/03/28 07:40:33;;;;;;;;;44.75;37.50;;;;;15.33;50.10;101935.41;5033560;28;45532;-78
2022/03/28 07:42:59;;;;;;;;;56.50;42.00;;;;;15.28;50.20;101911.31;5012480;28;45817;-78
2022/03/28 07:45:25;;;;;;;;;56.00;44.75;;;;;15.45;50.08;101924.91;5010515;28;45618;-79
2022/03/28 07:47:52;;;;;;;;;56.50;44.50;;;;;15.51;50.29;101921.03;5034605;28;45288;-79
2022/03/28 07:50:17;;;;;;;;;63.33;48.00;;;;;15.52;50.05;101920.09;5015772;28;47010;-80
2022/03/28 07:52:43;;;;;;;;;54.75;44.25;;;;;15.49;50.05;101910.28;5035055;28;45390;-78
2022/03/28 07:55:12;;;;;;;;;54.00;38.33;;;;;15.64;49.82;101934.88;5016086;28;45517;-78
2022/03/28 07:57:38;;;;;;;;;54.67;43.00;;;;;15.69;49.85;101932.81;5036080;28;45374;-78
2022/03/28 08:00:11;;;;;;;;;65.67;47.67;;;;;15.67;50.74;101918.50;5036834;28;45469;-78
2022/03/28 08:02:38;;;;;;;;;57.50;43.75;;;;;15.67;50.36;101919.38;5037654;28;45415;-79
2022/03/28 08:05:05;;;;;;;;;62.00;47.33;;;;;15.66;50.24;101906.81;5037301;28;45251;-77
2022/03/28 08:07:31;;;;;;;;;60.00;45.33;;;;;15.77;50.53;101920.69;5037148;28;45237;-78
2022/03/28 08:09:57;;;;;;;;;61.25;43.00;;;;;15.78;50.13;101905.34;5036708;28;46223;-77
2022/03/28 08:12:22;;;;;;;;;58.00;43.00;;;;;15.89;50.32;101916.53;5036914;28;45485;-79
2022/03/28 08:14:49;;;;;;;;;59.00;46.00;;;;;15.76;49.94;101883.78;5036807;28;45409;-78
2022/03/28 08:17:17;;;;;;;;;55.33;45.00;;;;;16.05;49.88;101920.22;5040223;28;45323;-78
2022/03/28 08:19:42;;;;;;;;;66.00;47.00;;;;;16.17;50.02;101919.56;5040005;28;46663;-78
2022/03/28 08:22:08;;;;;;;;;60.75;45.50;;;;;16.04;49.89;101887.81;5037032;28;45447;-78
2022/03/28 08:24:33;;;;;;;;;60.00;46.00;;;;;16.28;49.77;101916.34;5036689;28;45549;-78
2022/03/28 08:26:59;;;;;;;;;59.25;45.00;;;;;16.43;49.93;101929.06;5036393;28;45349;-78
2022/03/28 08:29:24;;;;;;;;;59.25;45.75;;;;;16.50;49.85;101925.09;5036453;28;45425;-77
2022/03/28 08:31:50;;;;;;;;;61.75;46.25;;;;;16.46;49.92;101895.56;5036610;28;45362;-77
2022/03/28 08:34:15;;;;;;;;;59.67;47.33;;;;;16.62;49.79;101907.38;5036067;28;45422;-79
2022/03/28 08:36:41;;;;;;;;;62.00;46.00;;;;;16.58;49.11;101886.81;5036897;28;45425;-77
2022/03/28 08:39:06;;;;;;;;;56.00;45.50;;;;;16.78;49.31;101904.72;5036164;28;45494;-77
2022/03/28 08:41:33;;;;;;;;;7.00;1.00;;;;;16.86;48.79;101905.19;5019364;28;45337;-77
2022/03/28 08:43:59;;;;;;;;;62.25;46.00;;;;;16.91;48.82;101903.13;5037096;28;45504;-78
2022/03/28 08:46:27;;;;;;;;;59.25;45.25;;;;;17.03;48.88;101903.31;5036724;28;45442;-78
2022/03/28 08:48:54;;;;;;;;;61.25;47.50;;;;;17.05;48.53;101889.72;5034313;28;46338;-77
2022/03/28 08:51:20;;;;;;;;;54.50;43.50;;;;;17.19;48.49;101894.34;5036662;28;45288;-78
2022/03/28 08:53:45;;;;;;;;;59.25;46.50;;;;;17.24;47.42;101898.59;5035799;28;45543;-77
2022/03/28 08:56:11;;;;;;;;;58.25;45.75;;;;;17.32;47.53;101893.59;5036204;28;45524;-78
2022/03/28 08:58:37;;;;;;;;;59.50;47.25;;;;;17.41;47.32;101900.34;5036255;28;45495;-77
2022/03/28 09:01:04;;;;;;;;;60.50;46.25;;;;;17.47;46.84;101899.13;5036054;28;45493;-78
2022/03/28 09:03:47;;;;;;;;;56.50;44.75;;;;;17.50;46.16;101883.56;5035736;28;45327;-78
2022/03/28 09:06:32;;;;;;;;;57.75;42.00;;;;;17.68;46.07;101898.84;5036141;28;45296;-77
2022/03/28 09:09:16;;;;;;;;;59.75;47.00;;;;;17.75;46.04;101893.94;5035927;28;47079;-78
2022/03/28 09:11:43;;;;;;;;;55.25;44.00;;;;;17.76;45.94;101883.00;5036388;28;45364;-79
2022/03/28 09:14:22;;;;;;;;;58.75;45.25;;;;;17.91;45.93;101905.63;5014858;28;45331;-79
2022/03/28 09:16:58;;;;;;;;;62.25;43.50;;;;;17.88;45.45;101881.38;5014415;28;46077;-78
2022/03/28 09:19:23;;;;;;;;;62.00;46.00;;;;;17.97;45.31;101894.41;5029224;28;45303;-80
2022/03/28 09:21:52;;;;;;;;;61.75;44.50;;;;;17.91;45.09;101864.06;5037015;28;45280;-77
2022/03/28 09:24:17;;;;;;;;;61.75;45.75;;;;;18.10;45.10;101895.47;5035796;28;45492;-79
2022/03/28 09:26:42;;;;;;;;;54.75;47.00;;;;;18.19;44.52;101901.31;5036056;28;45303;-80
2022/03/28 09:29:08;;;;;;;;;57.75;45.25;;;;;18.21;44.54;101883.94;5035793;28;46645;-78
2022/03/28 09:31:33;;;;;;;;;55.50;45.25;;;;;18.32;44.46;101897.75;5034853;28;45357;-78
2022/03/28 09:34:12;;;;;;;;;61.00;45.75;;;;;18.35;43.81;101897.59;5017359;28;45338;-77
2022/03/28 09:36:54;;;;;;;;;61.75;47.25;;;;;18.41;43.74;101893.63;5035722;28;45514;-77
2022/03/28 09:39:22;;;;;;;;;58.75;44.50;;;;;18.46;43.49;101886.06;5035558;28;46026;-76
2022/03/28 09:42:06;;;;;;;;;60.50;46.50;;;;;18.52;42.83;101883.88;5035480;28;45229;-76
2022/03/28 09:44:53;;;;;;;;;59.50;45.00;;;;;18.56;42.67;101868.25;5035310;28;45382;-78
2022/03/28 09:47:23;;;;;;;;;58.50;46.25;;;;;18.66;42.23;101876.72;5035195;28;45375;-76
2022/03/28 09:49:52;;;;;;;;;59.00;46.00;;;;;18.67;42.04;101868.50;5034975;28;45418;-77
2022/03/28 09:52:25;;;;;;;;;56.50;44.75;;;;;18.72;42.50;101862.75;5016430;28;45377;-78
2022/03/28 09:55:00;;;;;;;;;58.25;44.50;;;;;18.81;42.05;101870.34;5035756;28;45434;-77
2022/03/28 09:57:32;;;;;;;;;58.00;44.25;;;;;18.84;42.05;101860.16;5035294;28;45402;-78
2022/03/28 10:00:18;;;;;;;;;59.75;46.00;;;;;18.96;41.69;101863.09;5035240;28;46378;-78
2022/03/28 10:02:44;;;;;;;;;61.00;45.00;;;;;18.96;41.15;101850.38;5035116;28;45396;-75
2022/03/28 10:05:10;;;;;;;;;56.00;43.75;;;;;19.13;41.62;101857.47;5034778;28;45359;-79
2022/03/28 10:07:36;;;;;;;;;59.25;45.75;;;;;19.20;41.19;101854.25;5035300;28;45311;-75
2022/03/28 10:10:03;;;;;;;;;59.50;46.50;;;;;19.31;41.47;101855.41;5037034;28;45433;-72
2022/03/28 10:12:29;;;;;;;;;62.00;47.25;;;;;19.35;40.08;101837.91;5034956;28;45413;-72
2022/03/28 10:15:01;;;;;;;;;56.25;45.75;;;;;19.47;40.32;101839.84;5034940;28;45366;-74
2022/03/28 10:17:28;;;;;;;;;58.50;44.25;;;;;19.53;39.05;101836.72;5039253;28;45454;-72
2022/03/28 10:19:54;;;;;;;;;58.50;44.00;;;;;19.60;39.07;101830.78;5034819;28;45364;-74
2022/03/28 10:22:26;;;;;;;;;47.75;37.75;;;;;19.75;39.32;101842.47;5034724;28;45314;-72
2022/03/28 10:24:53;;;;;;;;;55.75;45.00;;;;;19.83;38.82;101834.69;5034507;28;45470;-75
2022/03/28 10:27:19;;;;;;;;;60.75;45.50;;;;;19.80;38.29;101817.69;5034404;28;45530;-73
2022/03/28 10:29:45;;;;;;;;;50.75;40.50;;;;;19.96;37.40;101827.44;5034129;28;46139;-74
2022/03/28 10:32:20;;;;;;;;;57.75;45.25;;;;;20.05;37.87;101816.91;5034129;28;45382;-75
2022/03/28 10:35:00;;;;;;;;;60.00;45.75;;;;;19.98;38.00;101797.41;5034413;28;45418;-75
2022/03/28 10:37:33;;;;;;;;;60.25;46.75;;;;;20.02;37.87;101779.88;5016401;28;47341;-77
2022/03/28 10:40:22;;;;;;;;;51.00;37.50;;;;;20.29;36.56;101801.59;5034191;28;46087;-76
2022/03/28 10:43:06;;;;;;;;;43.75;35.25;;;;;20.39;34.29;101803.59;5012820;28;45373;-73
2022/03/28 10:45:37;;;;;;;;;40.50;32.50;;;;;20.49;32.61;101797.50;5028166;28;45392;-77
2022/03/28 10:48:08;;;;;;;;;41.50;32.25;;;;;20.59;32.53;101798.56;5034702;28;45827;-77
2022/03/28 10:50:35;;;;;;;;;33.50;29.75;;;;;20.69;31.84;101796.94;5033984;28;45390;-78
2022/03/28 10:53:20;;;;;;;;;26.25;21.50;;;;;20.78;31.28;101788.97;5034693;28;45219;-76
2022/03/28 10:55:53;;;;;;;;;37.25;30.75;;;;;20.87;31.30;101784.72;5035159;28;45280;-78
2022/03/28 10:58:25;;;;;;;;;37.00;32.25;;;;;20.97;31.08;101782.19;5034214;28;45399;-73
2022/03/28 11:01:09;;;;;;;;;42.25;32.25;;;;;21.10;31.44;101783.03;5034301;28;46159;-73
2022/03/28 11:03:55;;;;;;;;;32.75;30.25;;;;;21.21;31.22;101774.97;5035844;28;45336;-73
2022/03/28 11:06:52;;;;;;;;;39.25;32.00;;;;;21.36;30.03;101765.63;5034390;28;45461;-74
2022/03/28 11:09:49;;;;;;;;;38.50;31.50;;;;;21.47;29.65;101762.13;5016071;28;46242;-75
2022/03/28 11:12:21;;;;;;;;;32.00;27.00;;;;;21.60;29.04;101754.75;5024192;28;45330;-76
2022/03/28 11:14:49;;;;;;;;;28.50;25.50;;;;;21.71;29.34;101748.47;5035112;28;45517;-75
2022/03/28 11:17:21;;;;;;;;;32.75;28.25;;;;;;;;5038685;28;45244;-75
2022/03/28 11:19:56;;;;;;;;;46.25;32.25;;;;;22.00;28.48;101748.97;5018954;28;46634;-73
2022/03/28 11:22:54;;;;;;;;;42.50;30.25;;;;;22.15;29.00;101740.47;5034369;28;46020;-72
2022/03/28 11:25:44;;;;;;;;;38.00;32.75;;;;;22.35;28.79;101729.81;5034600;28;45634;-74
2022/03/28 11:28:12;;;;;;;;;39.00;29.00;;;;;22.50;26.84;101734.06;5034172;28;45346;-74
2022/03/28 11:30:44;;;;;;;;;34.00;26.00;;;;;22.67;26.66;101728.09;5034300;28;45308;-73
2022/03/28 11:33:12;;;;;;;;;47.25;32.00;;;;;22.88;26.29;101722.78;5016270;28;46767;-74
2022/03/28 11:35:40;;;;;;;;;34.25;26.75;;;;;23.13;26.51;101727.09;5012368;28;45328;-74
2022/03/28 11:38:06;;;;;;;;;39.75;31.50;;;;;23.28;25.74;101723.06;5038032;28;45330;-73
2022/03/28 11:40:39;;;;;;;;;35.25;30.50;;;;;23.35;24.37;101703.28;5016139;28;45549;-73
2022/03/28 11:43:05;;;;;;;;;35.25;30.75;;;;;23.59;24.54;101715.91;5041631;28;45493;-72
2022/03/28 11:45:34;;;;;;;;;35.00;31.00;;;;;23.77;25.06;101706.13;5042994;28;45694;-74
2022/03/28 11:48:02;;;;;;;;;35.25;31.50;;;;;23.90;24.78;101700.47;5022177;28;45440;-70
2022/03/28 11:50:32;;;;;;;;;33.00;27.75;;;;;24.14;24.77;101685.50;5036773;28;45414;-73
2022/03/28 11:52:58;;;;;;;;;32.25;26.75;;;;;23.95;23.36;101613.28;5036839;28;45625;-73
2022/03/28 11:55:26;;;;;;;;;30.75;25.75;;;;;24.69;22.87;101698.91;5035180;28;45541;-73
2022/03/28 12:00:39;;;;;;;;;30.75;27.00;;;;;25.18;21.93;101679.72;5036510;28;45440;-73
2022/03/28 12:03:04;;;;;;;;;31.50;27.50;;;;;25.38;21.37;101672.38;5036747;28;46277;-72
2022/03/28 12:05:34;;;;;;;;;27.75;26.00;;;;;25.74;20.84;101680.94;5035750;28;45382;-74
2022/03/28 12:08:06;;;;;;;;;28.25;26.25;;;;;25.89;20.68;101673.97;5037394;28;45417;-74
2022/03/28 12:10:37;;;;;;;;;30.75;24.25;;;;;26.03;20.94;101678.16;5018992;28;46029;-73
2022/03/28 12:13:05;;;;;;;;;30.50;27.75;;;;;25.96;19.97;101673.25;5036898;28;45474;-72
2022/03/28 12:15:36;;;;;;;;;34.75;29.25;;;;;26.02;20.37;101668.19;5013120;28;45929;-72
2022/03/28 12:18:07;;;;;;;;;36.50;30.00;;;;;26.10;19.58;101663.69;5035185;28;45473;-73
2022/03/28 12:20:36;;;;;;;;;25.75;25.75;;;;;26.33;19.96;101659.59;5033797;28;46004;-74
2022/03/28 12:23:03;;;;;;;;;29.50;23.50;;;;;26.25;20.01;101653.94;5034939;28;46502;-74
2022/03/28 12:25:32;;;;;;;;;23.00;20.75;;;;;26.32;20.20;101656.97;5034238;28;45636;-73
2022/03/28 12:28:01;;;;;;;;;33.00;25.00;;;;;26.47;19.07;101640.84;5036671;28;45260;-73
2022/03/28 12:30:29;;;;;;;;;28.00;25.50;;;;;26.67;19.05;101634.25;5036298;28;45511;-73
2022/03/28 12:32:55;;;;;;;;;28.00;26.25;;;;;26.95;18.62;101637.88;5035765;28;46135;-73
2022/03/28 12:35:21;;;;;;;;;32.50;27.50;;;;;27.15;18.54;101635.84;5036394;28;45290;-72
2022/03/28 12:38:03;;;;;;;;;29.75;27.00;;;;;27.38;18.43;101632.50;5036306;28;45445;-74
2022/03/28 12:40:30;;;;;;;;;29.00;23.25;;;;;27.58;17.72;101621.31;5036439;28;46073;-74
2022/03/28 12:42:56;;;;;;;;;29.25;24.50;;;;;27.69;18.01;101615.56;5035818;28;46158;-74
2022/03/28 12:45:31;;;;;;;;;34.75;30.25;;;;;27.98;17.85;101618.00;5036331;28;45438;-74
2022/03/28 12:48:06;;;;;;;;;30.25;25.50;;;;;28.39;17.17;101619.16;5024543;28;45360;-74
2022/03/28 12:50:34;;;;;;;;;27.50;24.50;;;;;28.73;17.25;101602.56;5036244;28;45539;-72
2022/03/28 12:53:11;;;;;;;;;30.50;23.00;;;;;28.97;16.42;101598.00;5036240;28;46942;-73
2022/03/28 12:55:38;;;;;;;;;4.25;3.75;;;;;29.22;15.69;101600.78;5036009;28;45322;-73
2022/03/28 12:58:04;;;;;;;;;24.25;19.50;;;;;29.45;16.06;101610.16;5036111;28;45342;-73
2022/03/28 13:00:31;;;;;;;;;28.75;26.00;;;;;29.56;15.46;101582.19;5035931;28;45220;-74
2022/03/28 13:03:01;;;;;;;;;24.25;24.00;;;;;29.63;15.53;101569.41;5035228;28;46003;-74
2022/03/28 13:05:30;;;;;;;;;35.00;28.50;;;;;29.83;14.98;101580.09;5018033;28;45328;-74
2022/03/28 13:08:09;;;;;;;;;25.25;22.00;;;;;29.83;15.35;101582.84;5036267;28;45495;-73
2022/03/28 13:10:39;;;;;;;;;27.00;21.75;;;;;29.73;14.24;101560.91;5036309;28;45481;-74
2022/03/28 13:13:06;;;;;;;;;26.50;24.25;;;;;29.77;15.42;101573.38;5035932;28;46464;-73
2022/03/28 13:15:37;;;;;;;;;25.50;23.50;;;;;30.08;15.18;101554.13;5035051;28;45309;-74
2022/03/28 13:18:12;;;;;;;;;17.25;16.50;;;;;30.62;14.49;101557.91;5039769;28;45517;-73
2022/03/28 13:20:40;;;;;;;;;23.50;23.00;;;;;31.16;14.23;101542.16;5031767;28;45568;-75
2022/03/28 13:23:23;;;;;;;;;26.25;23.50;;;;;31.76;14.39;101541.28;5033883;28;45419;-74
2022/03/28 13:25:49;;;;;;;;;23.75;20.75;;;;;32.19;14.41;101544.31;5034992;28;45477;-74
2022/03/28 13:28:20;;;;;;;;;29.00;22.00;;;;;32.75;14.02;101539.91;5030911;28;45414;-74
2022/03/28 13:30:47;;;;;;;;;30.50;24.50;;;;;33.21;12.61;101540.44;5032223;28;45580;-75
2022/03/28 13:33:17;;;;;;;;;27.75;23.50;;;;;33.50;12.72;101527.47;5034290;28;47146;-76
2022/03/28 13:35:44;;;;;;;;;23.25;21.00;;;;;33.66;12.56;101530.78;5033093;28;45402;-75
2022/03/28 13:38:12;;;;;;;;;22.75;20.50;;;;;33.94;12.38;101521.59;5029903;28;45439;-76
2022/03/28 13:40:39;;;;;;;;;23.00;20.50;;;;;34.11;12.41;101515.47;5032018;28;45506;-73
2022/03/28 13:43:05;;;;;;;;;23.75;21.25;;;;;34.32;11.80;101503.41;5030524;28;46664;-75
2022/03/28 13:45:32;;;;;;;;;20.50;18.50;;;;;34.39;12.32;101495.94;5034413;28;45224;-73
2022/03/28 13:48:01;;;;;;;;;26.75;22.00;;;;;34.39;11.91;101482.03;5015081;28;45403;-75
2022/03/28 13:50:28;;;;;;;;;29.50;22.50;;;;;34.42;12.07;101494.66;5028193;28;45527;-74
2022/03/28 13:52:54;;;;;;;;;27.75;24.25;;;;;34.45;12.21;101491.47;5028124;28;46221;-75
2022/03/28 13:55:19;;;;;;;;;24.50;20.50;;;;;34.39;12.06;101475.59;5012320;28;45426;-73
2022/03/28 13:57:44;;;;;;;;;24.00;21.25;;;;;34.29;12.27;101475.97;5028754;28;45299;-74
2022/03/28 14:00:11;;;;;;;;;23.00;20.75;;;;;34.16;12.30;101479.53;5026858;28;45563;-73
2022/03/28 14:02:37;;;;;;;;;25.50;17.75;;;;;33.98;12.42;101473.66;5029203;28;45334;-74
2022/03/28 14:05:04;;;;;;;;;24.75;19.75;;;;;33.64;11.98;101457.81;5026764;28;45503;-72
2022/03/28 14:07:30;;;;;;;;;19.75;19.75;;;;;33.39;12.42;101456.56;5022702;28;45368;-74
2022/03/28 14:09:55;;;;;;;;;23.00;16.25;;;;;33.19;12.67;101455.50;5014140;28;45581;-74
2022/03/28 14:12:21;;;;;;;;;23.00;19.50;;;;;32.82;12.39;101437.25;5032011;28;45736;-74
2022/03/28 14:14:46;;;;;;;;;21.75;19.50;;;;;32.58;13.38;101436.53;5026269;28;45388;-75
2022/03/28 14:17:12;;;;;;;;;24.00;18.25;;;;;32.34;12.92;101442.47;5032713;28;45351;-74
2022/03/28 14:19:37;;;;;;;;;23.00;20.75;;;;;32.06;14.09;101447.00;5030118;28;45395;-75
2022/03/28 14:22:04;;;;;;;;;30.00;20.00;;;;;31.69;13.79;101437.75;5032309;28;46297;-73
2022/03/28 14:24:31;;;;;;;;;25.00;20.50;;;;;31.35;13.51;101431.88;5027072;28;45508;-73
2022/03/28 14:26:57;;;;;;;;;20.50;19.25;;;;;31.01;14.33;101435.09;5034874;28;45390;-74
2022/03/28 14:29:23;;;;;;;;;22.25;21.50;;;;;30.78;14.18;101440.69;5028819;28;45325;-73
2022/03/28 14:31:49;;;;;;;;;20.00;17.25;;;;;30.56;14.64;101434.06;5035026;28;45941;-74
2022/03/28 14:34:15;;;;;;;;;23.75;21.75;;;;;30.37;14.58;101435.38;5034862;28;45669;-73
2022/03/28 14:36:41;;;;;;;;;24.00;21.00;;;;;30.21;15.13;101429.06;5034951;28;45422;-72
2022/03/28 14:39:06;;;;;;;;;24.75;21.25;;;;;30.07;15.91;101430.72;5035312;28;45384;-73
2022/03/28 14:41:31;;;;;;;;;18.50;17.50;;;;;29.91;16.02;101428.00;5035010;28;45482;-73
2022/03/28 14:43:57;;;;;;;;;23.50;21.50;;;;;29.77;15.41;101407.50;5034729;28;45406;-73
2022/03/28 14:49:06;;;;;;;;;27.75;23.75;;;;;29.77;15.88;101413.03;5034760;28;45486;-72
2022/03/28 14:51:32;;;;;;;;;29.25;25.25;;;;;29.62;16.00;101406.50;5035193;28;45337;-73
2022/03/28 14:53:58;;;;;;;;;31.50;22.75;;;;;29.46;16.19;101404.66;5034717;28;45493;-74
2022/03/28 14:56:23;;;;;;;;;25.25;21.75;;;;;29.33;16.81;101396.06;5016914;28;45273;-74
2022/03/28 14:58:49;;;;;;;;;23.75;21.00;;;;;29.29;16.85;101394.66;5034188;28;45326;-73
2022/03/28 15:01:15;;;;;;;;;24.75;24.50;;;;;28.98;16.60;101372.47;5034813;28;46226;-74
2022/03/28 15:03:41;;;;;;;;;8.75;8.75;;;;;28.83;16.98;101354.91;5033775;28;45679;-73
2022/03/28 15:06:07;;;;;;;;;27.50;23.75;;;;;28.85;16.59;101372.13;5034150;28;45203;-76
2022/03/28 15:08:32;;;;;;;;;28.50;21.00;;;;;28.75;17.18;101382.47;5034024;28;45681;-75
2022/03/28 15:10:58;;;;;;;;;27.50;22.75;;;;;28.53;16.88;101373.84;5034669;28;45370;-73
2022/03/28 15:13:24;;;;;;;;;24.25;21.00;;;;;28.29;17.25;101359.16;5034310;28;45320;-72
2022/03/28 15:15:49;;;;;;;;;3.75;2.00;;;;;28.18;17.62;101372.22;5034729;28;45411;-72
2022/03/28 15:18:16;;;;;;;;;26.75;20.00;;;;;28.02;17.70;101368.53;5041923;28;45326;-71
2022/03/28 15:20:41;;;;;;;;;19.75;15.75;;;;;27.79;17.91;101363.66;5034409;28;45431;-74
2022/03/28 15:23:07;;;;;;;;;27.75;25.00;;;;;27.63;17.86;101354.47;5033891;28;45257;-74
2022/03/28 15:25:32;;;;;;;;;27.50;23.50;;;;;27.47;18.35;101353.34;5034509;28;45409;-75
2022/03/28 15:27:58;;;;;;;;;29.25;23.00;;;;;27.37;17.93;101355.38;5016567;28;45293;-73
2022/03/28 15:30:24;;;;;;;;;25.25;20.75;;;;;27.29;18.62;101351.72;5035164;28;45481;-74
2022/03/28 15:32:50;;;;;;;;;27.50;22.75;;;;;27.19;17.99;101351.81;5033897;28;45281;-72
2022/03/28 15:35:16;;;;;;;;;28.50;24.00;;;;;27.17;18.58;101344.75;5034209;28;45583;-73
2022/03/28 15:37:42;;;;;;;;;21.75;20.25;;;;;27.08;19.22;101344.69;5033858;28;45501;-73
2022/03/28 15:40:08;;;;;;;;;24.00;21.25;;;;;26.89;18.81;101311.84;5034076;28;45519;-73
2022/03/28 15:42:34;;;;;;;;;23.75;20.75;;;;;26.93;19.23;101328.94;5034154;28;45451;-73
2022/03/28 15:44:59;;;;;;;;;27.25;19.25;;;;;26.90;19.41;101318.22;5034111;28;45476;-73
2022/03/28 15:47:24;;;;;;;;;30.50;23.25;;;;;26.90;19.04;101326.47;5033766;28;45416;-73
2022/03/28 15:49:52;;;;;;;;;23.75;22.25;;;;;26.80;19.29;101325.72;5034056;28;46071;-73